Heroic Leader — C6ZD2 — position and weather

sailwx.info

Track history (hours):
 
Tides and Currents Weather Stations Pressure Air Temp Water Temp Dewpoint Dewpoint Depression Visibility Wind Speed Wind Dir Waves Ship Positions

Heroic Leader

Last reported at 2014-Aug-20 11:29 UTC. Time now 2014-Aug-20 20:30 UTC.
Position N 38°32' E 008°33'.

Length 200 m; draft 8.5 m.

Type: Cargo ship. MMSI: 311052700.

Date/timePositionNaut miles runAvg speedWind from/ knotsBaromVisibWave heightAir tempDewpointWater temp
2014-Aug-20 11:29N 38°32' E 008°33'1314.0
2014-Aug-20 10:33N 38°33' E 008°50'1414.1
2014-Aug-20 09:33N 38°33' E 009°08'1414.1
2014-Aug-20 08:33N 38°33' E 009°26'1614.2
2014-Aug-20 07:25N 38°33' E 009°47'12613.5
2014-Aug-19 22:06N 38°45' E 012°27'2012.8
2014-Aug-19 20:32N 38°48' E 012°52'1513.6
2014-Aug-19 19:24N 38°49' E 013°12'4013.8
2014-Aug-19 16:32N 38°47' E 014°03'1413.8
2014-Aug-19 15:30N 38°46' E 014°21'  
2014-Aug-17 01:32N 36°24' E 023°06'1313.2
2014-Aug-17 00:33N 36°32' E 023°19'3014.8
2014-Aug-16 22:33N 36°59' E 023°34'3014.8
2014-Aug-16 20:33N 37°28' E 023°42'1414.3
2014-Aug-16 19:33N 37°42' E 023°41'1413.6
2014-Aug-16 18:34N 37°55' E 023°37'2 2.2
2014-Aug-16 17:31N 37°58' E 023°36'0 0.0
2014-Aug-16 16:31N 37°58' E 023°36'0 0.0
2014-Aug-16 15:31N 37°58' E 023°36'0 0.0
2014-Aug-16 14:31N 37°58' E 023°36'0 0.0
2014-Aug-16 13:31N 37°58' E 023°36'1 0.5
2014-Aug-16 12:33N 37°57' E 023°36'6 6.4
2014-Aug-16 11:33N 37°51' E 023°39'1312.8
2014-Aug-16 10:34N 37°40' E 023°45'1918.7
2014-Aug-16 09:33N 37°22' E 023°53'1919.5
2014-Aug-16 08:33N 37°04' E 024°02'1919.4
2014-Aug-16 07:33N 36°46' E 024°11'2019.0
2014-Aug-16 06:31N 36°30' E 024°27'1919.5
2014-Aug-16 05:33N 36°20' E 024°46'1919.3
2014-Aug-16 04:33N 36°09' E 025°06'2019.6
2014-Aug-16 03:33N 35°59' E 025°26'2019.9
2014-Aug-16 02:33N 35°48' E 025°47'2019.6
2014-Aug-16 01:33N 35°38' E 026°07'2019.4
2014-Aug-16 00:32N 35°27' E 026°28'1919.1
2014-Aug-15 23:33N 35°18' E 026°48'8819.6
2014-Aug-15 19:04N 35°27' E 028°35'2019.4
2014-Aug-15 18:03N 35°30' E 028°59'4819.4
2014-Aug-15 15:33N 35°38' E 029°58'2019.4
2014-Aug-15 14:31N 35°41' E 030°23'230 5.1
2014-Aug-13 17:30N 35°00' E 034°60'8 7.9
2014-Aug-13 16:33N 34°53' E 035°01'9 8.1
2014-Aug-13 15:29N 34°44' E 035°03'8 8.1
2014-Aug-13 14:33N 34°37' E 035°05'63 4.2
2014-Aug-12 23:34N 33°36' E 034°44'6 6.5
2014-Aug-12 22:34N 33°33' E 034°38'0 0.2
2014-Aug-12 21:33N 33°33' E 034°37'0 0.3
2014-Aug-12 20:33N 33°33' E 034°37'0 0.4
2014-Aug-12 19:21N 33°33' E 034°37'0 0.4
2014-Aug-12 18:29N 33°34' E 034°36'0 0.3
2014-Aug-12 17:34N 33°34' E 034°36'2 0.7
2014-Aug-12 15:25N 33°35' E 034°36'1 0.9
2014-Aug-12 14:33N 33°36' E 034°35'10 5.0
2014-Aug-12 12:30N 33°32' E 034°24'8 7.7
2014-Aug-12 11:31N 33°28' E 034°16'8 7.8
2014-Aug-12 10:33N 33°24' E 034°09'8 7.9
2014-Aug-12 09:33N 33°21' E 034°00'11 7.9
2014-Aug-12 08:11N 33°15' E 033°49'5 8.1
2014-Aug-12 07:34N 33°13' E 033°44'8 8.2
2014-Aug-12 06:33N 33°09' E 033°35'10 9.7
2014-Aug-12 05:34N 33°04' E 033°25'1313.3
2014-Aug-12 04:34N 32°57' E 033°11'1313.1
2014-Aug-12 03:33N 32°51' E 032°58'1312.7
2014-Aug-12 02:33N 32°45' E 032°45'1312.5
2014-Aug-12 01:33N 32°38' E 032°32'1212.4
2014-Aug-12 00:33N 32°32' E 032°19'1211.9
2014-Aug-11 23:33N 32°26' E 032°07'1211.5
2014-Aug-11 22:34N 32°21' E 031°55'1211.9
2014-Aug-11 21:34N 32°15' E 031°42'1212.2
2014-Aug-11 20:34N 32°09' E 031°30'1412.6
2014-Aug-11 19:27N 32°02' E 031°15'1112.5
2014-Aug-11 18:34N 31°56' E 031°04'2613.1
2014-Aug-11 16:33N 31°44' E 030°37'2814.2
2014-Aug-11 14:33N 31°30' E 030°08'  
Track history (hours):
 
Tides and Currents Weather Stations Pressure Air Temp Water Temp Dewpoint Dewpoint Depression Visibility Wind Speed Wind Dir Waves Ship Positions

Heroic Leader

Last reported at 2014-Aug-20 11:29 UTC. Time now 2014-Aug-20 20:30 UTC.
Position N 38°32' E 008°33'.

Length 200 m; draft 8.5 m.

Type: Cargo ship. MMSI: 311052700.

Date/timePositionNaut miles runAvg speedWind from/ knotsBaromVisibWave heightAir tempDewpointWater temp
2014-Aug-20 11:29N 38°32' E 008°33'1314.0
2014-Aug-20 10:33N 38°33' E 008°50'1414.1
2014-Aug-20 09:33N 38°33' E 009°08'1414.1
2014-Aug-20 08:33N 38°33' E 009°26'1614.2
2014-Aug-20 07:25N 38°33' E 009°47'12613.5
2014-Aug-19 22:06N 38°45' E 012°27'2012.8
2014-Aug-19 20:32N 38°48' E 012°52'1513.6
2014-Aug-19 19:24N 38°49' E 013°12'4013.8
2014-Aug-19 16:32N 38°47' E 014°03'1413.8
2014-Aug-19 15:30N 38°46' E 014°21'  
2014-Aug-17 01:32N 36°24' E 023°06'1313.2
2014-Aug-17 00:33N 36°32' E 023°19'3014.8
2014-Aug-16 22:33N 36°59' E 023°34'3014.8
2014-Aug-16 20:33N 37°28' E 023°42'1414.3
2014-Aug-16 19:33N 37°42' E 023°41'1413.6
2014-Aug-16 18:34N 37°55' E 023°37'2 2.2
2014-Aug-16 17:31N 37°58' E 023°36'0 0.0
2014-Aug-16 16:31N 37°58' E 023°36'0 0.0
2014-Aug-16 15:31N 37°58' E 023°36'0 0.0
2014-Aug-16 14:31N 37°58' E 023°36'0 0.0
2014-Aug-16 13:31N 37°58' E 023°36'1 0.5
2014-Aug-16 12:33N 37°57' E 023°36'6 6.4
2014-Aug-16 11:33N 37°51' E 023°39'1312.8
2014-Aug-16 10:34N 37°40' E 023°45'1918.7
2014-Aug-16 09:33N 37°22' E 023°53'1919.5
2014-Aug-16 08:33N 37°04' E 024°02'1919.4
2014-Aug-16 07:33N 36°46' E 024°11'2019.0
2014-Aug-16 06:31N 36°30' E 024°27'1919.5
2014-Aug-16 05:33N 36°20' E 024°46'1919.3
2014-Aug-16 04:33N 36°09' E 025°06'2019.6
2014-Aug-16 03:33N 35°59' E 025°26'2019.9
2014-Aug-16 02:33N 35°48' E 025°47'2019.6
2014-Aug-16 01:33N 35°38' E 026°07'2019.4
2014-Aug-16 00:32N 35°27' E 026°28'1919.1
2014-Aug-15 23:33N 35°18' E 026°48'8819.6
2014-Aug-15 19:04N 35°27' E 028°35'2019.4
2014-Aug-15 18:03N 35°30' E 028°59'4819.4
2014-Aug-15 15:33N 35°38' E 029°58'2019.4
2014-Aug-15 14:31N 35°41' E 030°23'230 5.1
2014-Aug-13 17:30N 35°00' E 034°60'8 7.9
2014-Aug-13 16:33N 34°53' E 035°01'9 8.1
2014-Aug-13 15:29N 34°44' E 035°03'8 8.1
2014-Aug-13 14:33N 34°37' E 035°05'63 4.2
2014-Aug-12 23:34N 33°36' E 034°44'6 6.5
2014-Aug-12 22:34N 33°33' E 034°38'0 0.2
2014-Aug-12 21:33N 33°33' E 034°37'0 0.3
2014-Aug-12 20:33N 33°33' E 034°37'0 0.4
2014-Aug-12 19:21N 33°33' E 034°37'0 0.4
2014-Aug-12 18:29N 33°34' E 034°36'0 0.3
2014-Aug-12 17:34N 33°34' E 034°36'2 0.7
2014-Aug-12 15:25N 33°35' E 034°36'1 0.9
2014-Aug-12 14:33N 33°36' E 034°35'10 5.0
2014-Aug-12 12:30N 33°32' E 034°24'8 7.7
2014-Aug-12 11:31N 33°28' E 034°16'8 7.8
2014-Aug-12 10:33N 33°24' E 034°09'8 7.9
2014-Aug-12 09:33N 33°21' E 034°00'11 7.9
2014-Aug-12 08:11N 33°15' E 033°49'5 8.1
2014-Aug-12 07:34N 33°13' E 033°44'8 8.2
2014-Aug-12 06:33N 33°09' E 033°35'10 9.7
2014-Aug-12 05:34N 33°04' E 033°25'1313.3
2014-Aug-12 04:34N 32°57' E 033°11'1313.1
2014-Aug-12 03:33N 32°51' E 032°58'1312.7
2014-Aug-12 02:33N 32°45' E 032°45'1312.5
2014-Aug-12 01:33N 32°38' E 032°32'1212.4
2014-Aug-12 00:33N 32°32' E 032°19'1211.9
2014-Aug-11 23:33N 32°26' E 032°07'1211.5
2014-Aug-11 22:34N 32°21' E 031°55'1211.9
2014-Aug-11 21:34N 32°15' E 031°42'1212.2
2014-Aug-11 20:34N 32°09' E 031°30'1412.6
2014-Aug-11 19:27N 32°02' E 031°15'1112.5
2014-Aug-11 18:34N 31°56' E 031°04'2613.1
2014-Aug-11 16:33N 31°44' E 030°37'2814.2
2014-Aug-11 14:33N 31°30' E 030°08'  

Dump ship's entire track history